x

Portlock Bank- 76nm Ene Of Kodiak, Ak (46080) Wave Buoy

1:50pm - Thu 18th Dec 2014 All times are AKST. -9 hours from GMT.

  • Sig Wave height 15.7ft
  • Peak Period 10s
  • Average Period 7s
  • Wind
    29mph, 38mph gusts
  • Sea Temp 46°f
  • Air Temp 46°f
  • Sea Pressure 985.9mb
  • Portlock Bank- 76nm Ene Of Kodiak, Ak
  • Portlock Bank- 76nm Ene Of Kodiak, Ak

More Historic Weather Station data

Upgrade to MSW Pro to gain access to the past 30 days of data for over 8000 Wavebouys and Weather Stations around the globe.

Join Pro

Comparision Forecast

View Surf forecast
   
Thu 12/18 1:50pm 15.5ft 10s 7s 29 38 mph 985.9mb 46f 46f
12:50pm 14ft 9s 7s 31 40 mph 986.5mb 47f 46f
11:50am 15ft 9s 7s 31 36 mph 987mb 47f 45f
10:50am 16ft 9s 7s 31 38 mph 987.4mb 46f 45f
9:50am 17ft 9s 7s 29 38 mph 987.6mb 46f 45f
8:50am 15ft 9s 7s 36 45 mph 987.8mb 46f 45f
7:50am 15ft 9s 7s 31 43 mph 987.9mb 46f 44f
6:50am 15ft 8s 7s 34 40 mph 988.1mb 46f 45f
5:50am 14ft 8s 6s 31 43 mph 988.3mb 46f 45f
4:50am 13ft 8s 6s 31 38 mph 988.7mb 46f 45f
3:50am 12ft 8s 6s 29 34 mph 989.5mb 46f 45f
2:50am 12ft 8s 6s 29 38 mph 990mb 46f 45f
1:50am 12ft 8s 6s 29 38 mph 990.1mb 46f 46f
12:50am 11ft 8s 6s 31 43 mph 990.5mb 46f 45f
Wed 12/17 11:50pm 11ft 7s 6s 29 36 mph 991.2mb 46f 45f
10:50pm 10ft 6s 6s 29 38 mph 991.9mb 47f 45f
9:50pm 8.5ft 6s 5s 29 36 mph 992.9mb 47f 45f
8:50pm 8ft 5s 5s 27 34 mph 993.5mb 47f 45f
7:50pm 7ft 11s 5s 27 31 mph 994.1mb 47f 44f
6:50pm 6.5ft 11s 5s 25 29 mph 994.6mb 47f 44f
5:50pm 7ft 10s 6s 25 29 mph 995.2mb 46f 44f
4:50pm 6ft 12s 5s 22 27 mph 995.6mb 46f 44f
3:50pm 7ft 11s 6s 20 27 mph 996mb 46f 43f
2:50pm 8ft 11s 7s 16 20 mph 996.5mb 46f 43f
1:50pm 8ft 10s 7s 16 20 mph 997.2mb 46f 42f
12:50pm 7ft 11s 7s 13 20 mph 997.7mb 47f 41f
11:50am 7ft 10s 7s 16 20 mph 998.1mb 47f 42f
10:50am 7ft 11s 7s 4 7 mph 998.4mb 47f 40f
9:50am 7ft 11s 7s 11 13 mph 998.4mb 47f 42f
8:50am 7ft 10s 7s 9 11 mph 997.9mb 47f 42f
7:50am 7.5ft 11s 7s 4 7 mph 998.2mb 47f 42f
6:50am 7ft 8s 7s 4 7 mph 998.2mb 47f 41f
5:50am 7ft 11s 7s 2 7 mph 998.2mb 47f 41f
4:50am 7.5ft 12s 7s 7 9 mph 998mb 47f 42f
3:50am 8ft 11s 7s 9 11 mph 997.9mb 47f 42f
2:50am 9ft 10s 7s 11 13 mph 997.6mb 47f 42f
1:50am 9ft 11s 7s 11 16 mph 997.4mb 47f 42f
12:50am 9ft 10s 7s 13 16 mph 996.7mb 47f 42f
Tue 12/16 11:50pm 9ft 9s 6s 16 20 mph 995.5mb 47f 42f
10:50pm 10ft 11s 7s 16 22 mph 994.6mb 47f 42f
9:50pm 10.5ft 11s 7s 20 25 mph 993.7mb 46f 43f
8:50pm 10ft 11s 7s 20 27 mph 992.7mb 47f 42f
7:50pm 9.5ft 12s 7s 20 27 mph 991.6mb 47f 42f
6:50pm 10ft 11s 7s 22 29 mph 990.6mb 47f 41f
5:50pm 10ft 12s 8s 16 25 mph 989.8mb 47f 41f
4:50pm 11ft 11s 8s 13 18 mph 989.1mb 47f 41f
3:50pm 10.5ft 12s 7s 18 25 mph 988.1mb 47f 42f
2:50pm 10ft 10s 7s 18 22 mph 987.4mb 47f 42f
1:50pm 10.5ft 12s 8s 18 22 mph 986.6mb 47f 42f
12:50pm 11ft 12s 8s 13 20 mph 985.8mb 47f 42f
11:50am 12ft 12s 9s 11 18 mph 985.2mb 47f 44f
10:50am 11.5ft 11s 9s 9 13 mph 984.4mb 47f 44f
9:50am 13ft 11s 9s 4 9 mph 983.7mb 47f 43f
8:50am 13ft 11s 9s 9 13 mph 983mb 47f 43f
7:50am 12ft 13s 8s 11 16 mph 982.7mb 46f 43f
6:50am 11.5ft 11s 8s 11 16 mph 982.4mb 46f 43f
5:50am 13ft 13s 9s 4 7 mph 982.2mb 46f 43f
4:50am 11ft 11s 8s 9 11 mph 982mb 46f 44f
3:50am 13ft 13s 8s 9 11 mph 982.1mb 46f 44f
2:50am 12ft 11s 8s 7 11 mph 982.1mb 46f 43f
1:50am 12ft 11s 8s 7 11 mph 982mb 46f 44f
12:50am 12.5ft 11s 8s 11 16 mph 982.1mb 47f 44f
Mon 12/15 11:50pm 12ft 13s 8s 11 13 mph 982.1mb 47f 43f
10:50pm 12ft 11s 9s 9 13 mph 982.2mb 47f 43f
9:50pm 11ft 12s 8s 11 13 mph 982.2mb 47f 43f
8:50pm 13ft 12s 9s 9 13 mph 982.2mb 47f 43f
7:50pm 12ft 12s 8s 9 13 mph 982.2mb 47f 43f
6:50pm 14ft 12s 9s 11 16 mph 982.2mb 47f 44f
5:50pm 12ft 13s 8s 9 13 mph 982.2mb 46f 44f
4:50pm 12ft 11s 8s 11 13 mph 982.3mb 46f 43f
3:50pm 13.5ft 12s 8s 11 16 mph 982mb 46f 43f
2:50pm 12ft 11s 8s 16 20 mph 981.6mb 46f 43f
1:50pm 13ft 13s 8s 11 13 mph 981.7mb 46f 44f
12:50pm 13ft 12s 8s 16 20 mph 982.1mb 47f 44f
11:50am 12.5ft 13s 8s 18 22 mph 982.6mb 47f 44f
10:50am 11ft 12s 8s 16 20 mph 982.6mb 47f 44f
9:50am 11ft 12s 8s 20 22 mph 982.5mb 47f 44f
8:50am 11ft 12s 8s 16 20 mph 982.1mb 47f 44f
7:50am 12ft 13s 8s 16 20 mph 981.9mb 47f 44f
6:50am 12ft 11s 8s 16 20 mph 981.9mb 46f 43f
5:50am 10.5ft 13s 8s 16 20 mph 981.8mb 46f 43f
4:50am 11.5ft 12s 8s 13 18 mph 981.9mb 47f 43f
3:50am 12ft 11s 8s 11 16 mph 982mb 46f 43f
2:50am 13ft 13s 8s 11 16 mph 982.4mb 46f 43f
1:50am 13.5ft 11s 8s 13 16 mph 982.7mb 46f 43f
12:50am 13ft 11s 8s 13 18 mph 982.9mb 46f 43f
Sun 12/14 11:50pm 11ft 11s 7s 16 20 mph 983mb 46f 43f